Time;durP1;ratioP1;P1;durP2;ratioP2;P2;SDS_P1;SDS_P2;PMS_P1;PMS_P2;Temp;Humidity;BMP_temperature;BMP_pressure;BME280_temperature;BME280_humidity;BME280_pressure;Samples;Min_cycle;Max_cycle;Signal;HPM_P1;HPM_P2
2022/03/01 00:01:14;;;;;;;18.07;5.53;;;;;;;-0.72;73.80;102634.69;6048437;28;20038;-71
2022/03/01 00:04:09;;;;;;;17.03;5.67;;;;;;;-0.74;73.97;102629.53;6049646;28;20424;-71
2022/03/01 00:07:05;;;;;;;16.70;5.97;;;;;;;-0.74;73.74;102631.28;6049315;28;20092;-71
2022/03/01 00:10:00;;;;;;;14.88;6.03;;;;;;;-0.89;74.54;102629.78;6048807;28;20109;-71
2022/03/01 00:12:56;;;;;;;14.57;4.75;;;;;;;-1.08;74.94;102619.69;6049357;28;20040;-70
2022/03/01 00:15:51;;;;;;;15.80;5.23;;;;;;;-1.17;75.61;102627.69;6049647;28;20029;-70
2022/03/01 00:18:46;;;;;;;18.83;6.30;;;;;;;-1.20;76.05;102628.59;6048766;28;20026;-70
2022/03/01 00:21:42;;;;;;;15.67;5.53;;;;;;;-1.14;75.84;102630.22;6047929;28;20304;-70
2022/03/01 00:24:37;;;;;;;15.87;5.87;;;;;;;-1.10;75.72;102624.94;6049582;28;20280;-70
2022/03/01 00:27:33;;;;;;;14.63;5.45;;;;;;;-1.14;75.67;102627.63;6048478;28;20323;-69
2022/03/01 00:30:28;;;;;;;15.73;5.83;;;;;;;-1.15;76.03;102620.69;6048198;28;20149;-70
2022/03/01 00:33:23;;;;;;;15.70;5.85;;;;;;;-1.25;76.46;102627.81;6047393;28;20073;-69
2022/03/01 00:36:19;;;;;;;13.07;4.30;;;;;;;-1.34;76.93;102621.00;6049512;28;20083;-70
2022/03/01 00:39:15;;;;;;;21.27;5.53;;;;;;;-1.40;77.11;102620.22;6048014;28;20022;-70
2022/03/01 00:42:10;;;;;;;17.27;5.38;;;;;;;-1.40;77.19;102608.06;6048229;28;20477;-69
2022/03/01 00:45:06;;;;;;;18.67;5.40;;;;;;;-1.32;76.97;102614.00;6048988;28;20064;-70
2022/03/01 00:48:02;;;;;;;18.63;5.65;;;;;;;-1.33;76.64;102612.28;6048221;28;20023;-69
2022/03/01 00:50:57;;;;;;;12.80;4.97;;;;;;;-1.42;77.09;102604.66;6048277;28;20033;-69
2022/03/01 00:53:53;;;;;;;17.42;6.45;;;;;;;-1.51;77.59;102598.72;6047964;28;20038;-69
2022/03/01 00:56:48;;;;;;;12.68;4.60;;;;;;;-1.64;78.69;102604.97;6049150;28;20164;-70
2022/03/01 00:59:43;;;;;;;17.27;4.77;;;;;;;-1.75;78.60;102606.88;6048433;28;20029;-71
2022/03/01 01:02:40;;;;;;;18.50;6.17;;;;;;;-1.78;79.11;102609.50;6048008;28;20095;-70
2022/03/01 01:05:35;;;;;;;16.00;5.72;;;;;;;-1.86;79.30;102601.81;6048909;28;20030;-70
2022/03/01 01:08:30;;;;;;;17.20;5.63;;;;;;;-1.94;79.82;102595.88;6048427;28;20029;-70
2022/03/01 01:11:26;;;;;;;20.27;6.22;;;;;;;-1.97;79.84;102590.72;6050957;28;20025;-70
2022/03/01 01:14:21;;;;;;;17.67;5.90;;;;;;;-2.02;79.83;102587.31;6052491;28;20029;-70
2022/03/01 01:17:16;;;;;;;13.93;5.13;;;;;;;-2.10;80.80;102587.41;6053557;28;20284;-69
2022/03/01 01:20:13;;;;;;;17.52;5.15;;;;;;;-2.16;80.97;102584.88;6052176;28;20029;-69
2022/03/01 01:23:08;;;;;;;24.13;6.50;;;;;;;-2.15;81.30;102585.75;6053411;28;20038;-69
2022/03/01 01:26:04;;;;;;;20.37;5.77;;;;;;;-2.15;81.10;102597.03;6052947;28;20045;-69
2022/03/01 01:28:59;;;;;;;22.77;6.73;;;;;;;-2.14;81.63;102597.84;6046205;28;20487;-69
2022/03/01 01:31:54;;;;;;;18.27;5.77;;;;;;;-2.25;82.06;102581.53;6051877;28;20284;-69
2022/03/01 01:34:50;;;;;;;16.70;5.37;;;;;;;-2.28;82.06;102589.41;6052090;28;20030;-69
2022/03/01 01:37:45;;;;;;;17.33;6.90;;;;;;;-2.31;82.11;102586.84;6053343;28;20435;-69
2022/03/01 01:40:40;;;;;;;12.63;5.07;;;;;;;-2.35;82.39;102590.31;6051922;28;20137;-69
2022/03/01 01:43:36;;;;;;;23.90;5.83;;;;;;;-2.41;82.85;102597.31;6052105;28;20046;-69
2022/03/01 01:46:31;;;;;;;16.53;5.20;;;;;;;-2.46;82.91;102585.25;6053000;28;20029;-69
2022/03/01 01:49:26;;;;;;;22.67;6.83;;;;;;;-2.40;82.65;102585.19;6050381;28;20370;-69
2022/03/01 01:52:24;;;;;;;22.57;7.70;;;;;;;-2.49;82.37;102590.47;6052097;28;20273;-68
2022/03/01 01:55:20;;;;;;;16.17;5.03;;;;;;;-2.44;82.14;102581.75;6052285;28;20105;-68
2022/03/01 01:58:17;;;;;;;16.27;5.88;;;;;;;-2.47;81.82;102580.94;6051494;28;20104;-69
2022/03/01 02:01:13;;;;;;;13.80;5.50;;;;;;;-2.33;81.88;102596.34;6051672;28;20432;-68
2022/03/01 02:04:08;;;;;;;23.25;6.78;;;;;;;-2.40;81.25;102590.38;6051225;28;20041;-68
2022/03/01 02:07:04;;;;;;;19.52;5.72;;;;;;;-2.38;81.03;102577.38;6052154;28;20492;-69
2022/03/01 02:09:59;;;;;;;21.23;6.33;;;;;;;-2.40;81.07;102580.00;6051230;28;20096;-69
2022/03/01 02:12:56;;;;;;;20.13;5.67;;;;;;;-2.43;80.82;102570.50;6050662;28;20287;-69
2022/03/01 02:15:52;;;;;;;17.58;5.28;;;;;;;-2.32;80.52;102577.31;6052378;28;20276;-69
2022/03/01 02:18:47;;;;;;;18.65;6.50;;;;;;;-2.34;80.48;102584.25;6051461;28;20042;-68
2022/03/01 02:21:51;;;;;;;15.98;5.15;;;;;;;-2.43;80.74;102583.50;6048787;28;20453;-68
2022/03/01 02:24:46;;;;;;;15.10;5.35;;;;;;;-2.48;81.15;102587.88;6051120;28;20542;-69
2022/03/01 02:27:41;;;;;;;15.80;6.57;;;;;;;-2.59;81.25;102576.75;6050810;28;20034;-69
2022/03/01 02:30:37;;;;;;;22.03;7.00;;;;;;;-2.57;81.65;102587.97;6050985;28;20074;-69
2022/03/01 02:33:32;;;;;;;15.93;5.10;;;;;;;-2.64;81.74;102575.97;6051074;28;20491;-69
2022/03/01 02:36:27;;;;;;;16.47;5.17;;;;;;;-2.62;81.97;102569.00;6051370;28;20444;-69
2022/03/01 02:39:23;;;;;;;14.83;6.10;;;;;;;-2.69;82.24;102564.72;6051324;28;20132;-69
2022/03/01 02:42:19;;;;;;;17.13;6.33;;;;;;;-2.72;82.18;102569.13;6049866;28;20277;-69
2022/03/01 02:45:17;;;;;;;22.40;6.90;;;;;;;-2.68;82.28;102563.88;6051677;28;20037;-69
2022/03/01 02:48:12;;;;;;;17.25;5.75;;;;;;;-2.68;81.89;102569.06;6050387;28;20029;-69
2022/03/01 02:51:08;;;;;;;20.98;6.00;;;;;;;-2.71;82.48;102574.28;6050364;28;20034;-69
2022/03/01 02:54:04;;;;;;;16.33;7.03;;;;;;;-2.69;82.32;102567.34;6050391;28;20657;-69
2022/03/01 02:57:01;;;;;;;21.77;7.40;;;;;;;-2.75;81.90;102572.63;6050869;28;20429;-69
2022/03/01 02:59:56;;;;;;;17.77;7.18;;;;;;;-2.76;82.61;102575.22;6050547;28;20030;-69
2022/03/01 03:02:51;;;;;;;21.90;8.47;;;;;;;-2.78;82.18;102574.38;6049231;28;20373;-69
2022/03/01 03:05:47;;;;;;;16.73;6.40;;;;;;;-2.82;82.63;102573.53;6051102;28;20069;-69
2022/03/01 03:08:42;;;;;;;24.70;6.93;;;;;;;-2.86;82.67;102565.81;6049349;28;20042;-69
2022/03/01 03:11:37;;;;;;;20.35;6.78;;;;;;;-2.91;83.41;102560.66;6049475;28;20053;-69
2022/03/01 03:14:33;;;;;;;17.73;7.30;;;;;;;-2.92;83.28;102563.25;6050799;28;20638;-69
2022/03/01 03:17:28;;;;;;;25.30;7.73;;;;;;;-2.94;83.79;102565.88;6050535;28;20040;-69
2022/03/01 03:20:24;;;;;;;21.17;7.17;;;;;;;-3.00;83.80;102558.16;6050052;28;20033;-68
2022/03/01 03:23:19;;;;;;;22.20;9.25;;;;;;;-2.94;84.00;102565.88;6049031;28;20029;-69
2022/03/01 03:26:14;;;;;;;23.47;7.53;;;;;;;-2.97;83.96;102558.13;6043432;28;20034;-69
2022/03/01 03:29:10;;;;;;;17.98;6.10;;;;;;;-3.02;84.47;102558.16;6038917;28;20038;-69
2022/03/01 03:32:07;;;;;;;24.63;8.02;;;;;;;-3.07;84.43;102556.47;6046728;28;20038;-69
2022/03/01 03:35:03;;;;;;;20.02;6.95;;;;;;;-3.08;84.46;102550.47;6050089;28;20477;-70
2022/03/01 03:37:59;;;;;;;25.00;8.15;;;;;;;-3.06;84.51;102550.44;6047737;28;20049;-69
2022/03/01 03:40:54;;;;;;;23.30;8.90;;;;;;;-3.07;84.69;102564.25;6047995;28;20022;-69
2022/03/01 03:43:49;;;;;;;16.80;6.57;;;;;;;-3.11;84.74;102558.25;6048739;28;20037;-69
2022/03/01 03:46:45;;;;;;;17.23;5.43;;;;;;;-3.12;85.21;102550.47;6049881;28;20096;-69
2022/03/01 03:49:40;;;;;;;18.40;5.57;;;;;;;-3.18;85.30;102553.16;6031048;28;20343;-69
2022/03/01 03:52:37;;;;;;;19.67;7.00;;;;;;;-3.19;85.62;102554.00;6040647;28;20101;-69
2022/03/01 03:55:32;;;;;;;27.27;8.68;;;;;;;-3.20;85.63;102560.06;6041349;28;20253;-69
2022/03/01 03:58:27;;;;;;;11.47;5.13;;;;;;;-3.23;85.63;102560.09;6049641;28;20508;-69
2022/03/01 04:01:23;;;;;;;21.27;6.83;;;;;;;-3.26;85.28;102558.38;6049156;28;20475;-69
2022/03/01 04:04:18;;;;;;;26.08;8.02;;;;;;;-3.33;85.28;102555.88;6049057;28;20053;-69
2022/03/01 04:07:13;;;;;;;26.47;8.00;;;;;;;-3.37;85.67;102552.44;6049564;28;20052;-69
2022/03/01 04:10:09;;;;;;;15.97;6.03;;;;;;;-3.36;85.55;102561.06;6048844;28;20033;-69
2022/03/01 04:13:05;;;;;;;26.75;8.85;;;;;;;-3.35;86.19;102557.63;6049145;28;20420;-69
2022/03/01 04:16:01;;;;;;;21.07;7.03;;;;;;;-3.39;85.58;102550.72;6049810;28;20036;-68
2022/03/01 04:18:56;;;;;;;22.25;6.28;;;;;;;-3.34;86.11;102559.34;6049548;28;20037;-68
2022/03/01 04:21:51;;;;;;;22.97;8.50;;;;;;;-3.37;85.97;102556.78;6048656;28;20021;-68
2022/03/01 04:24:46;;;;;;;28.53;8.47;;;;;;;-3.39;85.87;102543.81;6049156;28;20025;-69
2022/03/01 04:27:42;;;;;;;21.97;7.73;;;;;;;-3.43;86.04;102549.91;6049463;28;20037;-69
2022/03/01 04:30:37;;;;;;;24.73;7.53;;;;;;;-3.39;85.69;102541.22;6048022;28;20022;-68
2022/03/01 04:33:32;;;;;;;25.07;8.63;;;;;;;-3.41;86.19;102539.50;6047592;28;20112;-69
2022/03/01 04:36:28;;;;;;;15.57;4.83;;;;;;;-3.37;85.40;102549.00;6049623;28;20029;-69
2022/03/01 04:39:23;;;;;;;19.70;7.07;;;;;;;-3.40;85.66;102539.50;6048531;28;20072;-68
2022/03/01 04:42:19;;;;;;;23.27;6.17;;;;;;;-3.38;85.37;102542.09;6048065;28;20030;-69
2022/03/01 04:45:16;;;;;;;18.83;6.10;;;;;;;-3.39;85.92;102553.31;6041049;28;20038;-69
2022/03/01 04:48:11;;;;;;;24.38;8.18;;;;;;;-3.38;85.84;102552.44;6051530;28;20026;-69
2022/03/01 04:51:07;;;;;;;18.23;6.13;;;;;;;-3.47;85.51;102552.50;6053450;28;20033;-69
2022/03/01 04:54:02;;;;;;;19.80;6.70;;;;;;;-3.53;86.15;102552.59;6053242;28;20029;-69
2022/03/01 04:56:58;;;;;;;20.47;7.63;;;;;;;-3.52;86.21;102549.09;6053485;28;20021;-69
2022/03/01 04:59:53;;;;;;;15.60;6.32;;;;;;;-3.54;85.91;102550.84;6053182;28;20379;-68
2022/03/01 05:02:48;;;;;;;20.93;6.40;;;;;;;-3.54;85.48;102545.66;6052586;28;20030;-68
2022/03/01 05:05:44;;;;;;;14.37;5.73;;;;;;;-3.56;86.09;102550.00;6053623;28;20036;-69
2022/03/01 05:08:39;;;;;;;28.97;7.93;;;;;;;-3.54;86.51;102550.84;6052790;28;20485;-68
2022/03/01 05:11:35;;;;;;;28.60;8.63;;;;;;;-3.61;85.98;102542.25;6052203;28;20025;-68
2022/03/01 05:14:31;;;;;;;18.90;7.38;;;;;;;-3.62;85.91;102544.00;6053582;28;20473;-69
2022/03/01 05:17:27;;;;;;;23.80;6.87;;;;;;;-3.64;85.86;102545.72;6053177;28;20036;-68
2022/03/01 05:20:25;;;;;;;19.15;6.95;;;;;;;-3.63;85.99;102542.28;6051570;28;20025;-69
2022/03/01 05:23:20;;;;;;;20.88;6.22;;;;;;;-3.65;85.99;102543.16;6053029;28;20057;-69
2022/03/01 05:26:16;;;;;;;21.13;7.33;;;;;;;-3.70;86.62;102535.44;6052863;28;20189;-68
2022/03/01 05:29:11;;;;;;;23.87;7.13;;;;;;;-3.68;86.72;102535.41;6052603;28;20033;-68
2022/03/01 05:32:07;;;;;;;20.70;6.50;;;;;;;-3.62;86.04;102537.97;6052349;28;20036;-68
2022/03/01 05:35:04;;;;;;;23.15;7.22;;;;;;;-3.68;86.03;102538.88;6052170;28;20033;-68
2022/03/01 05:37:59;;;;;;;21.02;7.45;;;;;;;-3.74;86.13;102548.41;6052797;28;20029;-68
2022/03/01 05:40:54;;;;;;;22.80;8.80;;;;;;;-3.76;86.67;102535.47;6051248;28;20041;-69
2022/03/01 05:43:51;;;;;;;26.03;7.90;;;;;;;-3.74;86.73;102538.91;6052129;28;20461;-69
2022/03/01 05:46:47;;;;;;;22.42;8.80;;;;;;;-3.80;86.60;102540.66;6052260;28;20038;-68
2022/03/01 05:49:42;;;;;;;25.42;7.78;;;;;;;-3.75;86.72;102546.69;6051848;28;20356;-68
2022/03/01 05:52:37;;;;;;;22.67;7.00;;;;;;;-3.76;86.98;102532.88;6051791;28;20029;-68
2022/03/01 05:55:33;;;;;;;24.75;7.68;;;;;;;-3.68;86.70;102538.88;6052137;28;20026;-69
2022/03/01 05:58:28;;;;;;;16.00;5.30;;;;;;;-3.67;86.32;102544.91;6049856;28;20113;-68
2022/03/01 06:01:23;;;;;;;21.93;9.37;;;;;;;-3.62;86.23;102538.81;6051422;28;20026;-68
2022/03/01 06:04:18;;;;;;;19.90;7.20;;;;;;;-3.63;86.18;102547.47;6051729;28;20519;-69
2022/03/01 06:07:14;;;;;;;24.30;7.53;;;;;;;-3.63;85.90;102539.69;6052166;28;20034;-68
2022/03/01 06:10:09;;;;;;;18.63;6.00;;;;;;;-3.57;86.40;102548.28;6051099;28;20065;-68
2022/03/01 06:13:05;;;;;;;22.30;8.90;;;;;;;-3.61;86.07;102545.72;6051282;28;20026;-69
2022/03/01 06:16:01;;;;;;;23.37;7.33;;;;;;;-3.62;86.29;102554.38;6051621;28;20088;-69
2022/03/01 06:18:56;;;;;;;21.08;7.53;;;;;;;-3.51;86.01;102556.03;6051358;28;20155;-68
2022/03/01 06:21:52;;;;;;;27.57;9.37;;;;;;;-3.55;85.48;102547.41;6050722;28;20029;-68
2022/03/01 06:24:47;;;;;;;19.77;8.32;;;;;;;-3.49;85.80;102556.84;6051470;28;20033;-68
2022/03/01 06:27:42;;;;;;;26.55;9.40;;;;;;;-3.45;85.19;102550.78;6051864;28;20037;-68
2022/03/01 06:30:38;;;;;;;19.47;7.10;;;;;;;-3.43;85.36;102554.22;6049993;28;20046;-68
2022/03/01 06:33:33;;;;;;;24.53;7.37;;;;;;;-3.37;85.28;102557.59;6051483;28;20041;-69
2022/03/01 06:36:28;;;;;;;17.30;5.88;;;;;;;-3.26;85.26;102558.38;6051694;28;20468;-68
2022/03/01 06:39:24;;;;;;;18.27;6.47;;;;;;;-3.25;84.33;102569.63;6050380;28;20030;-68
2022/03/01 06:42:19;;;;;;;23.57;7.80;;;;;;;-3.20;84.89;102573.03;6050994;28;20112;-69
2022/03/01 06:45:15;;;;;;;19.10;7.75;;;;;;;-3.14;84.65;102570.38;6066788;28;20046;-68
2022/03/01 06:48:10;;;;;;;23.05;7.32;;;;;;;-3.10;84.10;102567.75;6050103;28;20044;-67
2022/03/01 06:51:07;;;;;;;20.37;6.50;;;;;;;-3.06;83.90;102566.00;6049259;28;20046;-68
2022/03/01 06:54:03;;;;;;;21.80;8.02;;;;;;;-2.99;84.03;102562.47;6050714;28;20025;-69
2022/03/01 06:56:58;;;;;;;20.03;5.83;;;;;;;-2.94;84.00;102552.91;6050193;28;20041;-68
2022/03/01 06:59:53;;;;;;;21.07;6.70;;;;;;;-2.80;82.85;102563.97;6044968;28;20034;-68
2022/03/01 07:02:49;;;;;;;17.30;7.85;;;;;;;-2.67;83.19;102570.78;6042100;28;20384;-69
2022/03/01 07:05:44;;;;;;;20.53;8.63;;;;;;;-2.51;82.59;102564.56;6044110;28;20457;-68
2022/03/01 07:08:39;;;;;;;19.83;7.30;;;;;;;-2.32;82.27;102562.59;6049897;28;20034;-70
2022/03/01 07:11:35;;;;;;;16.00;6.17;;;;;;;-2.16;81.31;102574.50;6050359;28;20029;-70
2022/03/01 07:14:30;;;;;;;19.75;6.25;;;;;;;-1.97;81.00;102572.50;6050603;28;20033;-69
2022/03/01 07:17:26;;;;;;;18.47;7.00;;;;;;;-1.81;80.11;102574.00;6050331;28;20029;-69
2022/03/01 07:20:21;;;;;;;17.03;6.57;;;;;;;-1.67;79.80;102569.47;6048819;28;20772;-70
2022/03/01 07:23:16;;;;;;;15.00;5.40;;;;;;;-1.60;79.08;102565.06;6049258;28;20296;-69
2022/03/01 07:26:12;;;;;;;24.97;8.27;;;;;;;-1.55;78.71;102569.28;6050277;28;20101;-69
2022/03/01 07:29:07;;;;;;;23.58;8.55;;;;;;;-1.49;78.53;102563.97;6049301;28;20049;-69
2022/03/01 07:32:05;;;;;;;24.55;7.50;;;;;;;-1.38;78.17;102554.28;6049446;28;20076;-69
2022/03/01 07:35:00;;;;;;;18.38;6.30;;;;;;;-1.22;78.08;102552.25;6050030;28;20103;-70
2022/03/01 07:37:55;;;;;;;21.77;8.77;;;;;;;-1.13;77.63;102548.66;6049421;28;20030;-71
2022/03/01 07:40:51;;;;;;;22.88;8.75;;;;;;;-0.92;77.13;102556.06;6049067;28;20018;-71
2022/03/01 07:43:47;;;;;;;24.63;8.83;;;;;;;-0.87;77.20;102555.09;6049690;28;20473;-70
2022/03/01 07:46:42;;;;;;;26.52;9.15;;;;;;;-0.73;76.21;102560.91;6049751;28;20029;-71
2022/03/01 07:49:38;;;;;;;24.85;9.55;;;;;;;-0.55;76.05;102557.13;6049350;28;20461;-70
2022/03/01 07:52:33;;;;;;;22.20;7.38;;;;;;;-0.41;75.02;102549.88;6048204;28;20193;-70
2022/03/01 07:55:29;;;;;;;29.67;9.07;;;;;;;-0.24;74.96;102550.38;6049299;28;20040;-70
2022/03/01 07:58:24;;;;;;;22.05;7.95;;;;;;;-0.26;74.27;102549.56;6049074;28;20091;-70
2022/03/01 08:01:20;;;;;;;20.33;7.57;;;;;;;-0.15;74.11;102537.16;6049221;28;20025;-70
2022/03/01 08:04:16;;;;;;;18.63;7.07;;;;;;;0.11;73.78;102540.94;6049263;28;20079;-70
2022/03/01 08:07:12;;;;;;;19.42;7.50;;;;;;;0.37;73.16;102530.75;6049220;28;20032;-70
2022/03/01 08:10:07;;;;;;;17.33;6.53;;;;;;;0.43;72.54;102541.91;6048817;28;20048;-70
2022/03/01 08:13:03;;;;;;;21.45;8.35;;;;;;;0.66;71.28;102548.28;6049373;28;20030;-70
2022/03/01 08:15:58;;;;;;;22.23;8.70;;;;;;;0.85;69.55;102549.56;6049622;28;20377;-71
2022/03/01 08:18:53;;;;;;;21.33;8.03;;;;;;;0.97;68.31;102544.03;6049479;28;20026;-70
2022/03/01 08:21:49;;;;;;;18.40;7.10;;;;;;;1.00;68.16;102529.16;6048052;28;20744;-71
2022/03/01 08:24:44;;;;;;;18.48;5.82;;;;;;;1.15;66.54;102525.25;6048208;28;20281;-72
2022/03/01 08:27:40;;;;;;;16.67;6.63;;;;;;;1.33;66.70;102514.31;6048069;28;20423;-72
2022/03/01 08:30:35;;;;;;;24.50;10.53;;;;;;;1.55;65.99;102517.16;6046778;28;20053;-71
2022/03/01 08:33:30;;;;;;;23.50;8.63;;;;;;;1.60;64.75;102525.72;6047827;28;20026;-71
2022/03/01 08:36:26;;;;;;;25.10;8.65;;;;;;;1.71;65.18;102521.06;6048052;28;20042;-71
2022/03/01 08:39:21;;;;;;;20.63;6.78;;;;;;;1.92;64.51;102530.00;6047604;28;20042;-71
2022/03/01 08:42:18;;;;;;;15.57;6.83;;;;;;;2.08;63.35;102531.25;6046732;28;20097;-72
2022/03/01 08:45:13;;;;;;;17.92;7.72;;;;;;;2.44;62.82;102532.72;6048426;28;20029;-72
2022/03/01 08:48:09;;;;;;;17.15;7.13;;;;;;;2.48;61.79;102530.81;6048025;28;20034;-72
2022/03/01 08:51:04;;;;;;;20.33;6.40;;;;;;;2.51;61.75;102528.13;6048081;28;20465;-72
2022/03/01 08:53:59;;;;;;;19.67;7.63;;;;;;;3.00;60.36;102541.28;6048771;28;20080;-72
2022/03/01 08:56:55;;;;;;;19.77;8.00;;;;;;;3.22;59.43;102531.78;6048635;28;20076;-72
2022/03/01 08:59:50;;;;;;;21.83;6.80;;;;;;;3.32;58.71;102535.75;6048344;28;20028;-72
2022/03/01 09:02:45;;;;;;;23.07;7.40;;;;;;;3.44;58.02;102519.59;6045523;28;20033;-72
2022/03/01 09:05:40;;;;;;;14.27;6.27;;;;;;;3.31;57.40;102523.59;6048697;28;20026;-72
2022/03/01 09:08:39;;;;;;;19.63;9.07;;;;;;;3.38;57.39;102518.97;6048617;28;20026;-73
2022/03/01 09:11:34;;;;;;;16.17;7.13;;;;;;;3.41;56.23;102503.97;6047679;28;20022;-71
2022/03/01 09:14:29;;;;;;;14.53;6.43;;;;;;;3.41;57.11;102509.22;6048995;28;20461;-73
2022/03/01 09:17:25;;;;;;;15.67;6.27;;;;;;;3.67;56.51;102500.38;6048186;28;20022;-73
2022/03/01 09:20:20;;;;;;;17.95;6.63;;;;;;;3.83;57.26;102513.78;6048128;28;20703;-73
2022/03/01 09:23:15;;;;;;;19.93;7.13;;;;;;;3.72;55.98;102521.22;6048455;28;20041;-73
2022/03/01 09:26:11;;;;;;;13.80;5.55;;;;;;;3.96;55.47;102512.41;6048456;28;20030;-72
2022/03/01 09:29:06;;;;;;;12.13;5.68;;;;;;;3.66;55.11;102530.16;6039622;28;20518;-73
2022/03/01 09:32:02;;;;;;;14.60;6.68;;;;;;;3.49;55.23;102524.66;6047907;28;20026;-73
2022/03/01 09:34:58;;;;;;;14.55;5.90;;;;;;;3.65;54.82;102517.94;6052734;28;20453;-73
2022/03/01 09:37:53;;;;;;;16.27;5.93;;;;;;;3.86;54.25;102509.25;6051849;28;20037;-73
2022/03/01 09:40:48;;;;;;;18.93;7.40;;;;;;;3.64;54.30;102510.16;6051692;28;20046;-73
2022/03/01 09:43:44;;;;;;;15.77;5.45;;;;;;;4.03;54.26;102513.84;6052372;28;20022;-73
2022/03/01 09:46:39;;;;;;;13.95;5.63;;;;;;;4.22;52.37;102517.47;6052162;28;20385;-73
2022/03/01 09:49:34;;;;;;;13.50;4.80;;;;;;;4.40;52.24;102505.38;6052631;28;20052;-74
2022/03/01 09:52:30;;;;;;;14.63;5.70;;;;;;;4.59;51.39;102501.91;6051893;28;20113;-72
2022/03/01 09:55:26;;;;;;;11.68;5.10;;;;;;;4.68;51.58;102493.66;6052182;28;20029;-72
2022/03/01 09:58:22;;;;;;;14.50;4.78;;;;;;;4.90;51.04;102490.97;6051922;28;20036;-72
2022/03/01 10:01:18;;;;;;;14.82;6.95;;;;;;;5.14;50.28;102476.75;6050058;28;20132;-72
2022/03/01 10:04:14;;;;;;;17.60;7.30;;;;;;;5.24;49.92;102479.84;6051012;28;20030;-72
2022/03/01 10:07:11;;;;;;;15.52;6.00;;;;;;;5.18;49.96;102472.22;6051346;28;20025;-73
2022/03/01 10:10:08;;;;;;;15.18;6.05;;;;;;;5.08;50.13;102476.19;6050810;28;20037;-74
2022/03/01 10:13:04;;;;;;;14.05;5.00;;;;;;;5.44;49.56;102464.00;6062257;28;20485;-73
2022/03/01 10:16:06;;;;;;;13.20;5.63;;;;;;;5.17;49.29;102467.88;6052533;28;20037;-73
2022/03/01 10:19:01;;;;;;;16.67;6.47;;;;;;;5.50;48.48;102476.00;6051137;28;20026;-72
2022/03/01 10:22:01;;;;;;;13.27;5.47;;;;;;;5.69;48.36;102482.13;6050715;28;20104;-73
2022/03/01 10:25:04;;;;;;;16.67;6.78;;;;;;;5.12;48.86;102480.38;6051326;28;20053;-72
2022/03/01 10:27:59;;;;;;;12.88;4.88;;;;;;;5.23;50.26;102486.00;6051144;28;20029;-73
2022/03/01 10:30:54;;;;;;;13.20;5.33;;;;;;;5.56;48.46;102484.50;6050278;28;20029;-72
2022/03/01 10:33:54;;;;;;;14.80;4.87;;;;;;;5.17;48.23;102487.13;6050296;28;20025;-72
2022/03/01 10:36:49;;;;;;;12.57;5.78;;;;;;;5.24;47.98;102487.72;6050872;28;20025;-73
2022/03/01 10:39:45;;;;;;;13.05;5.60;;;;;;;5.51;48.71;102496.16;6050373;28;20037;-73
2022/03/01 10:42:41;;;;;;;13.87;5.27;;;;;;;6.02;46.85;102487.63;6048790;28;20378;-74
2022/03/01 10:45:44;;;;;;;10.20;4.93;;;;;;;5.63;46.20;102479.78;6051012;28;20084;-73
2022/03/01 10:48:39;;;;;;;12.73;4.75;;;;;;;5.44;47.43;102482.41;6050465;28;20100;-73
2022/03/01 10:51:46;;;;;;;14.97;5.50;;;;;;;5.50;47.70;102492.66;6050068;28;20026;-73
2022/03/01 10:54:43;;;;;;;13.32;5.50;;;;;;;5.25;47.63;102485.00;6049864;28;20036;-73
2022/03/01 10:57:38;;;;;;;9.93;4.65;;;;;;;5.40;48.50;102483.47;6050480;28;20377;-73
2022/03/01 11:00:35;;;;;;;15.33;5.57;;;;;;;5.43;48.61;102475.47;6048831;28;20049;-73
2022/03/01 11:03:30;;;;;;;13.93;5.05;;;;;;;5.62;48.31;102484.22;6049670;28;20026;-73
2022/03/01 11:06:26;;;;;;;10.93;5.33;;;;;;;5.49;47.70;102474.31;6050192;28;20028;-74
2022/03/01 11:09:24;;;;;;;14.55;5.28;;;;;;;5.53;47.86;102479.38;6050783;28;20025;-73
2022/03/01 11:12:22;;;;;;;14.32;5.55;;;;;;;5.53;48.44;102462.72;6049187;28;20117;-73
2022/03/01 11:15:37;;;;;;;14.52;6.47;;;;;;;5.49;48.10;102466.44;6049749;28;20034;-73
2022/03/01 11:18:56;;;;;;;14.27;5.45;;;;;;;5.64;47.69;102463.94;6049593;28;20037;-73
2022/03/01 11:21:51;;;;;;;14.38;5.18;;;;;;;6.16;47.52;102453.59;6036748;28;20041;-73
2022/03/01 11:24:47;;;;;;;11.90;4.87;;;;;;;6.72;45.97;102454.22;6049843;28;20022;-73
2022/03/01 11:27:50;;;;;;;16.17;6.35;;;;;;;6.40;45.76;102455.00;6048006;28;20275;-73
2022/03/01 11:30:51;;;;;;;13.32;5.25;;;;;;;6.33;46.37;102446.53;6043893;28;20026;-73
2022/03/01 11:33:59;;;;;;;15.10;5.75;;;;;;;6.62;47.10;102450.38;6049600;28;20029;-72
2022/03/01 11:36:56;;;;;;;13.93;5.18;;;;;;;6.79;46.46;102439.81;6047265;28;20457;-74
2022/03/01 11:39:57;;;;;;;14.88;6.07;;;;;;;6.39;47.03;102450.66;6048001;28;20030;-73
2022/03/01 11:42:53;;;;;;;;;;;;;;;6.49;47.80;102451.91;6047713;28;20030;-73
2022/03/01 11:45:49;;;;;;;12.88;4.70;;;;;;;6.64;46.87;102451.13;6049137;28;19937;-73
2022/03/01 11:48:56;;;;;;;11.52;4.90;;;;;;;6.85;46.59;102444.75;6049721;28;20488;-73
2022/03/01 11:51:55;;;;;;;12.48;5.45;;;;;;;6.85;46.25;102439.47;6048768;28;20045;-73
2022/03/01 11:54:53;;;;;;;13.68;5.80;;;;;;;7.14;45.81;102441.47;6049308;28;20022;-74
2022/03/01 11:57:49;;;;;;;17.52;6.18;;;;;;;7.00;45.77;102438.69;6048756;28;20026;-73
2022/03/01 12:00:46;;;;;;;9.82;5.22;;;;;;;6.88;45.21;102425.28;6048096;28;20052;-72
2022/03/01 12:03:42;;;;;;;12.05;6.20;;;;;;;6.50;45.89;102422.84;6048292;28;20029;-73
2022/03/01 12:06:39;;;;;;;9.77;4.50;;;;;;;6.81;45.05;102424.75;6048254;28;20041;-73
2022/03/01 12:09:35;;;;;;;11.85;5.55;;;;;;;7.04;45.63;102421.75;6048553;28;20046;-74
2022/03/01 12:12:44;;;;;;;14.25;5.50;;;;;;;6.77;44.89;102425.84;6047966;28;20116;-73
2022/03/01 12:15:41;;;;;;;10.73;5.07;;;;;;;7.17;45.12;102416.69;6048524;28;20111;-73
2022/03/01 12:18:38;;;;;;;12.02;5.20;;;;;;;6.83;43.86;102409.72;6048760;28;20461;-73
2022/03/01 12:21:34;;;;;;;13.25;5.75;;;;;;;6.99;44.91;102407.97;6047661;28;20029;-73
2022/03/01 12:24:30;;;;;;;12.63;5.55;;;;;;;6.97;44.48;102391.38;6047783;28;20400;-73
2022/03/01 12:27:29;;;;;;;14.65;5.60;;;;;;;7.09;45.16;102398.63;6048315;28;20065;-74
2022/03/01 12:30:25;;;;;;;12.90;5.72;;;;;;;6.86;45.28;102399.00;6047649;28;20034;-73
2022/03/01 12:33:21;;;;;;;8.05;4.03;;;;;;;7.12;44.56;102401.09;6047970;28;20040;-74
2022/03/01 12:36:24;;;;;;;10.50;4.93;;;;;;;6.93;43.69;102395.09;6049133;28;20046;-74
2022/03/01 12:39:20;;;;;;;11.93;4.85;;;;;;;6.72;43.17;102396.22;6048611;28;20855;-71
2022/03/01 12:42:16;;;;;;;12.02;4.85;;;;;;;6.93;43.21;102392.47;6047504;28;20029;-74
2022/03/01 12:45:11;;;;;;;12.38;4.57;;;;;;;7.06;43.39;102390.91;6048579;28;20465;-72
2022/03/01 12:48:09;;;;;;;14.33;6.03;;;;;;;7.15;41.81;102389.53;6048294;28;20025;-70
2022/03/01 12:51:05;;;;;;;13.45;5.03;;;;;;;6.84;42.42;102386.84;6048433;28;20360;-73
2022/03/01 12:54:12;;;;;;;14.67;5.43;;;;;;;6.74;43.03;102378.53;6047651;28;20037;-71
2022/03/01 12:57:11;;;;;;;13.70;4.85;;;;;;;6.95;43.70;102385.34;6049267;28;20025;-73
2022/03/01 13:00:12;;;;;;;12.25;4.65;;;;;;;7.28;43.21;102387.09;6046937;28;20364;-73
2022/03/01 13:03:08;;;;;;;11.88;4.40;;;;;;;7.36;42.22;102383.09;6047281;28;20425;-72
2022/03/01 13:06:11;;;;;;;11.00;4.20;;;;;;;7.59;41.89;102377.38;6044020;28;20037;-72
2022/03/01 13:09:07;;;;;;;13.20;5.15;;;;;;;7.81;40.83;102379.66;6049193;28;20026;-73
2022/03/01 13:12:03;;;;;;;15.13;4.75;;;;;;;7.64;41.71;102372.69;6049163;28;20440;-73
2022/03/01 13:14:58;;;;;;;12.38;5.47;;;;;;;7.65;41.03;102369.13;6037058;28;20034;-72
2022/03/01 13:17:58;;;;;;;12.07;5.33;;;;;;;7.30;42.70;102380.78;6041416;28;20495;-71
2022/03/01 13:20:53;;;;;;;13.27;4.70;;;;;;;7.31;43.69;102386.94;6052110;28;20021;-72
2022/03/01 13:23:50;;;;;;;13.70;4.90;;;;;;;7.48;43.83;102378.91;6051852;28;20084;-73
2022/03/01 13:26:46;;;;;;;11.57;4.80;;;;;;;7.36;43.55;102384.88;6053105;28;20026;-72
2022/03/01 13:29:41;;;;;;;13.63;5.53;;;;;;;7.48;43.53;102376.28;6052390;28;21733;-72
2022/03/01 13:32:37;;;;;;;12.90;5.40;;;;;;;7.76;43.84;102379.09;6051661;28;20049;-72
2022/03/01 13:35:34;;;;;;;11.63;5.27;;;;;;;8.06;43.14;102373.81;6052027;28;20083;-72